sensor_id;sensor_type;location;lat;lon;timestamp;pressure;altitude;pressure_sealevel;temperature;humidity
26112;BME280;13829;48.990;8.346;2023-11-21T00:02:21;99850.91;;;11.07;100.00
26112;BME280;13829;48.990;8.346;2023-11-21T00:04:48;99843.03;;;11.04;100.00
26112;BME280;13829;48.990;8.346;2023-11-21T00:07:15;99847.47;;;10.96;100.00
26112;BME280;13829;48.990;8.346;2023-11-21T00:09:42;99848.28;;;11.10;100.00
26112;BME280;13829;48.990;8.346;2023-11-21T00:12:09;99850.94;;;11.04;100.00
26112;BME280;13829;48.990;8.346;2023-11-21T00:14:38;99855.25;;;11.16;100.00
26112;BME280;13829;48.990;8.346;2023-11-21T00:17:05;99850.06;;;11.05;100.00
26112;BME280;13829;48.990;8.346;2023-11-21T00:19:32;99844.75;;;11.11;100.00
26112;BME280;13829;48.990;8.346;2023-11-21T00:21:59;99840.41;;;11.05;100.00
26112;BME280;13829;48.990;8.346;2023-11-21T00:24:26;99837.81;;;10.99;100.00
26112;BME280;13829;48.990;8.346;2023-11-21T00:26:53;99836.88;;;11.08;100.00
26112;BME280;13829;48.990;8.346;2023-11-21T00:29:20;99843.00;;;11.10;100.00
26112;BME280;13829;48.990;8.346;2023-11-21T00:31:48;99843.03;;;11.08;100.00
26112;BME280;13829;48.990;8.346;2023-11-21T00:34:15;99834.19;;;11.19;100.00
26112;BME280;13829;48.990;8.346;2023-11-21T00:36:42;99834.16;;;11.25;100.00
26112;BME280;13829;48.990;8.346;2023-11-21T00:39:09;99839.41;;;11.25;100.00
26112;BME280;13829;48.990;8.346;2023-11-21T00:41:37;99831.56;;;11.19;100.00
26112;BME280;13829;48.990;8.346;2023-11-21T00:44:05;99833.31;;;11.20;100.00
26112;BME280;13829;48.990;8.346;2023-11-21T00:46:32;99818.31;;;11.30;100.00
26112;BME280;13829;48.990;8.346;2023-11-21T00:49:00;99825.28;;;11.32;100.00
26112;BME280;13829;48.990;8.346;2023-11-21T00:51:29;99822.72;;;11.24;100.00
26112;BME280;13829;48.990;8.346;2023-11-21T00:53:57;99835.03;;;11.22;100.00
26112;BME280;13829;48.990;8.346;2023-11-21T00:56:24;99824.41;;;11.35;100.00
26112;BME280;13829;48.990;8.346;2023-11-21T00:58:51;99833.22;;;11.31;100.00
26112;BME280;13829;48.990;8.346;2023-11-21T01:01:18;99830.59;;;11.26;100.00
26112;BME280;13829;48.990;8.346;2023-11-21T01:03:46;99836.84;;;11.14;100.00
26112;BME280;13829;48.990;8.346;2023-11-21T01:06:15;99831.50;;;11.26;100.00
26112;BME280;13829;48.990;8.346;2023-11-21T01:08:44;99836.75;;;11.23;100.00
26112;BME280;13829;48.990;8.346;2023-11-21T01:11:11;99839.31;;;11.37;100.00
26112;BME280;13829;48.990;8.346;2023-11-21T01:13:39;99841.94;;;11.39;100.00
26112;BME280;13829;48.990;8.346;2023-11-21T01:16:07;99843.78;;;11.28;100.00
26112;BME280;13829;48.990;8.346;2023-11-21T01:18:35;99844.59;;;11.39;100.00
26112;BME280;13829;48.990;8.346;2023-11-21T01:21:02;99836.75;;;11.31;100.00
26112;BME280;13829;48.990;8.346;2023-11-21T01:23:31;99845.41;;;11.44;100.00
26112;BME280;13829;48.990;8.346;2023-11-21T01:25:58;99842.78;;;11.41;100.00
26112;BME280;13829;48.990;8.346;2023-11-21T01:28:25;99843.81;;;11.21;100.00
26112;BME280;13829;48.990;8.346;2023-11-21T01:30:52;99846.50;;;11.12;100.00
26112;BME280;13829;48.990;8.346;2023-11-21T01:33:22;99838.53;;;11.28;100.00
26112;BME280;13829;48.990;8.346;2023-11-21T01:35:50;99846.38;;;11.31;100.00
26112;BME280;13829;48.990;8.346;2023-11-21T01:38:20;99854.44;;;11.07;100.00
26112;BME280;13829;48.990;8.346;2023-11-21T01:40:49;99852.66;;;11.11;100.00
26112;BME280;13829;48.990;8.346;2023-11-21T01:43:16;99853.66;;;10.85;100.00
26112;BME280;13829;48.990;8.346;2023-11-21T01:45:43;99846.63;;;10.92;100.00
26112;BME280;13829;48.990;8.346;2023-11-21T01:48:12;99847.56;;;10.80;100.00
26112;BME280;13829;48.990;8.346;2023-11-21T01:50:40;99851.06;;;10.82;100.00
26112;BME280;13829;48.990;8.346;2023-11-21T01:53:07;99845.78;;;10.88;100.00
26112;BME280;13829;48.990;8.346;2023-11-21T01:55:35;99843.94;;;11.06;100.00
26112;BME280;13829;48.990;8.346;2023-11-21T01:58:03;99850.97;;;10.98;100.00
26112;BME280;13829;48.990;8.346;2023-11-21T02:00:30;99860.63;;;10.99;100.00
26112;BME280;13829;48.990;8.346;2023-11-21T02:02:59;99850.97;;;11.01;100.00
26112;BME280;13829;48.990;8.346;2023-11-21T02:05:26;99846.56;;;10.98;100.00
26112;BME280;13829;48.990;8.346;2023-11-21T02:07:53;99854.56;;;10.81;100.00
26112;BME280;13829;48.990;8.346;2023-11-21T02:10:19;99842.28;;;10.83;100.00
26112;BME280;13829;48.990;8.346;2023-11-21T02:12:48;99850.22;;;10.74;100.00
26112;BME280;13829;48.990;8.346;2023-11-21T02:15:19;99857.22;;;10.73;100.00
26112;BME280;13829;48.990;8.346;2023-11-21T02:17:47;99852.91;;;10.58;100.00
26112;BME280;13829;48.990;8.346;2023-11-21T02:20:17;99849.38;;;10.72;100.00
26112;BME280;13829;48.990;8.346;2023-11-21T02:22:50;99852.91;;;10.58;100.00
26112;BME280;13829;48.990;8.346;2023-11-21T02:25:23;99851.19;;;10.48;100.00
26112;BME280;13829;48.990;8.346;2023-11-21T02:27:50;99847.72;;;10.41;100.00
26112;BME280;13829;48.990;8.346;2023-11-21T02:30:17;99844.22;;;10.25;100.00
26112;BME280;13829;48.990;8.346;2023-11-21T02:32:44;99845.03;;;10.54;100.00
26112;BME280;13829;48.990;8.346;2023-11-21T02:35:11;99843.34;;;10.26;100.00
26112;BME280;13829;48.990;8.346;2023-11-21T02:37:38;99839.88;;;10.14;100.00
26112;BME280;13829;48.990;8.346;2023-11-21T02:40:09;99842.47;;;10.18;100.00
26112;BME280;13829;48.990;8.346;2023-11-21T02:42:38;99845.97;;;10.23;100.00
26112;BME280;13829;48.990;8.346;2023-11-21T02:45:07;99846.00;;;10.20;100.00
26112;BME280;13829;48.990;8.346;2023-11-21T02:47:34;99837.19;;;10.31;100.00
26112;BME280;13829;48.990;8.346;2023-11-21T02:50:01;99837.19;;;10.31;100.00
26112;BME280;13829;48.990;8.346;2023-11-21T02:52:29;99838.09;;;10.26;100.00
26112;BME280;13829;48.990;8.346;2023-11-21T02:54:58;99830.22;;;10.22;100.00
26112;BME280;13829;48.990;8.346;2023-11-21T02:57:27;99831.09;;;10.25;100.00
26112;BME280;13829;48.990;8.346;2023-11-21T02:59:54;99830.22;;;10.22;100.00
26112;BME280;13829;48.990;8.346;2023-11-21T03:02:21;99832.88;;;10.06;100.00
26112;BME280;13829;48.990;8.346;2023-11-21T03:04:48;99835.50;;;10.08;100.00
26112;BME280;13829;48.990;8.346;2023-11-21T03:07:15;99835.50;;;10.12;100.00
26112;BME280;13829;48.990;8.346;2023-11-21T03:09:42;99833.75;;;10.22;100.00
26112;BME280;13829;48.990;8.346;2023-11-21T03:12:10;99826.72;;;10.21;100.00
26112;BME280;13829;48.990;8.346;2023-11-21T03:14:39;99837.22;;;10.37;100.00
26112;BME280;13829;48.990;8.346;2023-11-21T03:17:06;99837.19;;;10.49;100.00
26112;BME280;13829;48.990;8.346;2023-11-21T03:19:33;99831.94;;;10.43;100.00
26112;BME280;13829;48.990;8.346;2023-11-21T03:22:00;99828.41;;;10.50;100.00
26112;BME280;13829;48.990;8.346;2023-11-21T03:24:27;99828.41;;;10.50;100.00
26112;BME280;13829;48.990;8.346;2023-11-21T03:26:54;99837.13;;;10.62;100.00
26112;BME280;13829;48.990;8.346;2023-11-21T03:29:20;99836.28;;;10.52;100.00
26112;BME280;13829;48.990;8.346;2023-11-21T03:31:49;99839.81;;;10.43;100.00
26112;BME280;13829;48.990;8.346;2023-11-21T03:34:23;99849.44;;;10.53;100.00
26112;BME280;13829;48.990;8.346;2023-11-21T03:36:51;99847.72;;;10.31;100.00
26112;BME280;13829;48.990;8.346;2023-11-21T03:39:19;99845.97;;;10.31;100.00
26112;BME280;13829;48.990;8.346;2023-11-21T03:41:47;99845.09;;;10.34;100.00
26112;BME280;13829;48.990;8.346;2023-11-21T03:44:15;99847.72;;;10.37;100.00
26112;BME280;13829;48.990;8.346;2023-11-21T03:46:43;99852.97;;;10.43;100.00
26112;BME280;13829;48.990;8.346;2023-11-21T03:49:11;99843.28;;;10.56;100.00
26112;BME280;13829;48.990;8.346;2023-11-21T03:51:38;99844.16;;;10.59;100.00
26112;BME280;13829;48.990;8.346;2023-11-21T03:54:06;99843.22;;;10.68;100.00
26112;BME280;13829;48.990;8.346;2023-11-21T03:56:33;99845.03;;;10.62;100.00
26112;BME280;13829;48.990;8.346;2023-11-21T03:58:59;99839.75;;;10.58;100.00
26112;BME280;13829;48.990;8.346;2023-11-21T04:01:26;99851.13;;;10.73;100.00
26112;BME280;13829;48.990;8.346;2023-11-21T04:03:53;99851.13;;;10.65;100.00
26112;BME280;13829;48.990;8.346;2023-11-21T04:06:22;99847.56;;;10.80;100.00
26112;BME280;13829;48.990;8.346;2023-11-21T04:08:48;99840.50;;;10.85;100.00
26112;BME280;13829;48.990;8.346;2023-11-21T04:11:15;99852.88;;;10.68;100.00
26112;BME280;13829;48.990;8.346;2023-11-21T04:13:42;99858.03;;;10.88;100.00
26112;BME280;13829;48.990;8.346;2023-11-21T04:16:09;99861.59;;;10.82;100.00
26112;BME280;13829;48.990;8.346;2023-11-21T04:18:37;99866.00;;;10.68;100.00
26112;BME280;13829;48.990;8.346;2023-11-21T04:21:05;99865.97;;;10.80;100.00
26112;BME280;13829;48.990;8.346;2023-11-21T04:23:35;99859.81;;;10.87;100.00
26112;BME280;13829;48.990;8.346;2023-11-21T04:26:02;99870.34;;;10.81;100.00
26112;BME280;13829;48.990;8.346;2023-11-21T04:28:29;99866.88;;;10.76;100.00
26112;BME280;13829;48.990;8.346;2023-11-21T04:30:56;99870.41;;;10.72;100.00
26112;BME280;13829;48.990;8.346;2023-11-21T04:33:23;99875.59;;;10.81;100.00
26112;BME280;13829;48.990;8.346;2023-11-21T04:35:51;99869.50;;;10.71;100.00
26112;BME280;13829;48.990;8.346;2023-11-21T04:38:18;99874.78;;;10.74;100.00
26112;BME280;13829;48.990;8.346;2023-11-21T04:40:47;99877.41;;;10.70;100.00
26112;BME280;13829;48.990;8.346;2023-11-21T04:43:14;99880.88;;;10.75;100.00
26112;BME280;13829;48.990;8.346;2023-11-21T04:45:41;99882.69;;;10.67;100.00
26112;BME280;13829;48.990;8.346;2023-11-21T04:48:08;99882.66;;;10.76;100.00
26112;BME280;13829;48.990;8.346;2023-11-21T04:50:35;99883.50;;;10.81;100.00
26112;BME280;13829;48.990;8.346;2023-11-21T04:53:02;99878.25;;;10.80;100.00
26112;BME280;13829;48.990;8.346;2023-11-21T04:55:29;99879.16;;;10.77;100.00
26112;BME280;13829;48.990;8.346;2023-11-21T04:57:57;99894.06;;;10.78;100.00
26112;BME280;13829;48.990;8.346;2023-11-21T05:00:24;99889.63;;;10.83;100.00
26112;BME280;13829;48.990;8.346;2023-11-21T05:02:52;99896.72;;;10.66;100.00
26112;BME280;13829;48.990;8.346;2023-11-21T05:05:19;99891.47;;;10.66;100.00
26112;BME280;13829;48.990;8.346;2023-11-21T05:07:46;99896.69;;;10.78;100.00
26112;BME280;13829;48.990;8.346;2023-11-21T05:10:14;99894.91;;;10.80;100.00
26112;BME280;13829;48.990;8.346;2023-11-21T05:12:42;99898.34;;;10.91;100.00
26112;BME280;13829;48.990;8.346;2023-11-21T05:15:14;99898.34;;;10.91;100.00
26112;BME280;13829;48.990;8.346;2023-11-21T05:17:43;99901.00;;;10.90;100.00
26112;BME280;13829;48.990;8.346;2023-11-21T05:20:12;99898.44;;;10.70;100.00
26112;BME280;13829;48.990;8.346;2023-11-21T05:22:43;99899.28;;;10.80;100.00
26112;BME280;13829;48.990;8.346;2023-11-21T05:25:11;99901.91;;;10.81;100.00
26112;BME280;13829;48.990;8.346;2023-11-21T05:27:38;99905.44;;;10.83;100.00
26112;BME280;13829;48.990;8.346;2023-11-21T05:30:06;99907.16;;;10.81;100.00
26112;BME280;13829;48.990;8.346;2023-11-21T05:32:36;99907.16;;;10.81;100.00
26112;BME280;13829;48.990;8.346;2023-11-21T05:35:04;99913.25;;;10.96;100.00
26112;BME280;13829;48.990;8.346;2023-11-21T05:37:35;99923.03;;;10.59;100.00
26112;BME280;13829;48.990;8.346;2023-11-21T05:40:06;99923.03;;;10.53;100.00
26112;BME280;13829;48.990;8.346;2023-11-21T05:42:34;99924.75;;;10.70;100.00
26112;BME280;13829;48.990;8.346;2023-11-21T05:45:02;99928.25;;;10.75;100.00
26112;BME280;13829;48.990;8.346;2023-11-21T05:47:39;99930.00;;;10.76;100.00
26112;BME280;13829;48.990;8.346;2023-11-21T05:50:08;99936.19;;;10.58;100.00
26112;BME280;13829;48.990;8.346;2023-11-21T05:52:38;99933.50;;;10.75;100.00
26112;BME280;13829;48.990;8.346;2023-11-21T05:55:06;99934.41;;;10.71;100.00
26112;BME280;13829;48.990;8.346;2023-11-21T05:57:34;99942.31;;;10.52;100.00
26112;BME280;13829;48.990;8.346;2023-11-21T06:00:04;99937.03;;;10.71;100.00
26112;BME280;13829;48.990;8.346;2023-11-21T06:02:38;99941.34;;;10.84;100.00
26112;BME280;13829;48.990;8.346;2023-11-21T06:05:07;99943.13;;;10.77;100.00
26112;BME280;13829;48.990;8.346;2023-11-21T06:07:35;99950.16;;;10.79;100.00
26112;BME280;13829;48.990;8.346;2023-11-21T06:10:02;99945.81;;;10.67;100.00
26112;BME280;13829;48.990;8.346;2023-11-21T06:12:32;99949.25;;;10.84;100.00
26112;BME280;13829;48.990;8.346;2023-11-21T06:15:02;99951.00;;;10.85;100.00
26112;BME280;13829;48.990;8.346;2023-11-21T06:17:30;99953.66;;;10.77;100.00
26112;BME280;13829;48.990;8.346;2023-11-21T06:19:59;99948.38;;;10.77;100.00
26112;BME280;13829;48.990;8.346;2023-11-21T06:22:26;99951.00;;;10.84;100.00
26112;BME280;13829;48.990;8.346;2023-11-21T06:24:53;99954.50;;;10.87;100.00
26112;BME280;13829;48.990;8.346;2023-11-21T06:27:20;99960.59;;;10.96;100.00
26112;BME280;13829;48.990;8.346;2023-11-21T06:29:47;99961.56;;;10.76;100.00
26112;BME280;13829;48.990;8.346;2023-11-21T06:32:14;99966.78;;;10.85;100.00
26112;BME280;13829;48.990;8.346;2023-11-21T06:34:42;99967.69;;;10.80;100.00
26112;BME280;13829;48.990;8.346;2023-11-21T06:37:10;99969.41;;;10.79;100.00
26112;BME280;13829;48.990;8.346;2023-11-21T06:39:37;99972.06;;;10.76;100.00
26112;BME280;13829;48.990;8.346;2023-11-21T06:42:05;99975.63;;;10.66;100.00
26112;BME280;13829;48.990;8.346;2023-11-21T06:44:32;99975.59;;;10.78;100.00
26112;BME280;13829;48.990;8.346;2023-11-21T06:47:01;99966.84;;;10.73;100.00
26112;BME280;13829;48.990;8.346;2023-11-21T06:49:28;99972.91;;;10.87;100.00
26112;BME280;13829;48.990;8.346;2023-11-21T06:51:55;99974.66;;;10.91;100.00
26112;BME280;13829;48.990;8.346;2023-11-21T06:54:23;99981.63;;;11.00;100.00
26112;BME280;13829;48.990;8.346;2023-11-21T06:56:50;99987.84;;;10.82;100.00
26112;BME280;13829;48.990;8.346;2023-11-21T06:59:19;99987.84;;;10.79;100.00
26112;BME280;13829;48.990;8.346;2023-11-21T07:01:46;99991.31;;;10.84;100.00
26112;BME280;13829;48.990;8.346;2023-11-21T07:04:12;99997.47;;;10.80;100.00
26112;BME280;13829;48.990;8.346;2023-11-21T07:06:39;100000.13;;;10.74;100.00
26112;BME280;13829;48.990;8.346;2023-11-21T07:09:07;100000.97;;;10.95;100.00
26112;BME280;13829;48.990;8.346;2023-11-21T07:11:36;100001.84;;;10.87;100.00
26112;BME280;13829;48.990;8.346;2023-11-21T07:14:03;100014.16;;;10.70;100.00
26112;BME280;13829;48.990;8.346;2023-11-21T07:16:33;100007.16;;;10.63;100.00
26112;BME280;13829;48.990;8.346;2023-11-21T07:19:03;100012.41;;;10.69;100.00
26112;BME280;13829;48.990;8.346;2023-11-21T07:21:31;100025.53;;;10.89;100.00
26112;BME280;13829;48.990;8.346;2023-11-21T07:23:58;100029.94;;;10.82;100.00
26112;BME280;13829;48.990;8.346;2023-11-21T07:26:26;100036.13;;;10.56;100.00
26112;BME280;13829;48.990;8.346;2023-11-21T07:28:55;100036.94;;;10.68;100.00
26112;BME280;13829;48.990;8.346;2023-11-21T07:31:22;100034.31;;;10.68;100.00
26112;BME280;13829;48.990;8.346;2023-11-21T07:33:51;100035.19;;;10.76;100.00
26112;BME280;13829;48.990;8.346;2023-11-21T07:36:19;100051.00;;;10.70;100.00
26112;BME280;13829;48.990;8.346;2023-11-21T07:38:47;100043.97;;;10.81;100.00
26112;BME280;13829;48.990;8.346;2023-11-21T07:41:14;100048.34;;;10.82;100.00
26112;BME280;13829;48.990;8.346;2023-11-21T07:43:42;100045.72;;;10.74;100.00
26112;BME280;13829;48.990;8.346;2023-11-21T07:46:11;100049.25;;;10.72;100.00
26112;BME280;13829;48.990;8.346;2023-11-21T07:48:38;100052.72;;;10.82;100.00
26112;BME280;13829;48.990;8.346;2023-11-21T07:51:05;100056.25;;;10.64;100.00
26112;BME280;13829;48.990;8.346;2023-11-21T07:53:32;100051.00;;;10.60;100.00
26112;BME280;13829;48.990;8.346;2023-11-21T07:56:03;100066.78;;;10.51;100.00
26112;BME280;13829;48.990;8.346;2023-11-21T07:58:31;100068.53;;;10.54;100.00
26112;BME280;13829;48.990;8.346;2023-11-21T08:00:59;100060.66;;;10.55;100.00
26112;BME280;13829;48.990;8.346;2023-11-21T08:03:28;100062.41;;;10.64;100.00
26112;BME280;13829;48.990;8.346;2023-11-21T08:05:56;100074.69;;;10.53;100.00
26112;BME280;13829;48.990;8.346;2023-11-21T08:08:23;100077.31;;;10.53;100.00
26112;BME280;13829;48.990;8.346;2023-11-21T08:10:50;100068.53;;;10.49;100.00
26112;BME280;13829;48.990;8.346;2023-11-21T08:13:22;100072.91;;;10.66;100.00
26112;BME280;13829;48.990;8.346;2023-11-21T08:15:49;100082.56;;;10.64;100.00
26112;BME280;13829;48.990;8.346;2023-11-21T08:18:16;100078.19;;;10.78;100.00
26112;BME280;13829;48.990;8.346;2023-11-21T08:20:45;100084.28;;;10.80;100.00
26112;BME280;13829;48.990;8.346;2023-11-21T08:23:14;100082.56;;;10.81;100.00
26112;BME280;13829;48.990;8.346;2023-11-21T08:25:43;100096.56;;;10.63;100.00
26112;BME280;13829;48.990;8.346;2023-11-21T08:28:10;100098.34;;;10.60;100.00
26112;BME280;13829;48.990;8.346;2023-11-21T08:30:37;100092.19;;;10.68;100.00
26112;BME280;13829;48.990;8.346;2023-11-21T08:33:05;100104.47;;;10.61;100.00
26112;BME280;13829;48.990;8.346;2023-11-21T08:35:32;100104.47;;;10.69;100.00
26112;BME280;13829;48.990;8.346;2023-11-21T08:38:00;100104.44;;;10.84;100.00
26112;BME280;13829;48.990;8.346;2023-11-21T08:40:27;100103.59;;;10.74;100.00
26112;BME280;13829;48.990;8.346;2023-11-21T08:42:55;100102.69;;;10.94;100.00
26112;BME280;13829;48.990;8.346;2023-11-21T08:45:22;100112.31;;;11.03;100.00
26112;BME280;13829;48.990;8.346;2023-11-21T08:47:49;100120.22;;;11.14;100.00
26112;BME280;13829;48.990;8.346;2023-11-21T08:50:16;100114.97;;;11.03;100.00
26112;BME280;13829;48.990;8.346;2023-11-21T08:52:44;100112.28;;;11.18;100.00
26112;BME280;13829;48.990;8.346;2023-11-21T08:55:14;100114.03;;;11.21;100.00
26112;BME280;13829;48.990;8.346;2023-11-21T08:57:44;100114.06;;;11.13;100.00
26112;BME280;13829;48.990;8.346;2023-11-21T09:00:12;100121.97;;;11.12;100.00
26112;BME280;13829;48.990;8.346;2023-11-21T09:02:42;100115.84;;;10.99;100.00
26112;BME280;13829;48.990;8.346;2023-11-21T09:05:10;100118.47;;;11.02;100.00
26112;BME280;13829;48.990;8.346;2023-11-21T09:07:40;100122.88;;;11.06;100.00
26112;BME280;13829;48.990;8.346;2023-11-21T09:10:09;100129.00;;;10.99;100.00
26112;BME280;13829;48.990;8.346;2023-11-21T09:12:38;100126.38;;;11.03;100.00
26112;BME280;13829;48.990;8.346;2023-11-21T09:15:07;100129.84;;;11.13;100.00
26112;BME280;13829;48.990;8.346;2023-11-21T09:17:35;100130.72;;;11.24;100.00
26112;BME280;13829;48.990;8.346;2023-11-21T09:20:03;100131.56;;;11.34;100.00
26112;BME280;13829;48.990;8.346;2023-11-21T09:22:31;100138.59;;;11.31;100.00
26112;BME280;13829;48.990;8.346;2023-11-21T09:24:58;100133.34;;;11.21;100.00
26112;BME280;13829;48.990;8.346;2023-11-21T09:27:25;100141.22;;;11.31;100.00
26112;BME280;13829;48.990;8.346;2023-11-21T09:29:53;100145.66;;;11.10;100.00
26112;BME280;13829;48.990;8.346;2023-11-21T09:32:21;100153.56;;;11.01;100.00
26112;BME280;13829;48.990;8.346;2023-11-21T09:34:48;100156.22;;;11.01;100.00
26112;BME280;13829;48.990;8.346;2023-11-21T09:37:15;100164.06;;;11.05;100.00
26112;BME280;13829;48.990;8.346;2023-11-21T09:39:42;100164.09;;;11.10;100.00
26112;BME280;13829;48.990;8.346;2023-11-21T09:42:13;100164.09;;;11.15;100.00
26112;BME280;13829;48.990;8.346;2023-11-21T09:44:49;100167.59;;;11.01;100.00
26112;BME280;13829;48.990;8.346;2023-11-21T09:47:21;100171.09;;;11.11;100.00
26112;BME280;13829;48.990;8.346;2023-11-21T09:49:49;100171.09;;;11.17;100.00
26112;BME280;13829;48.990;8.346;2023-11-21T09:52:24;100177.19;;;11.35;100.00
26112;BME280;13829;48.990;8.346;2023-11-21T09:54:53;100175.44;;;11.31;100.00
26112;BME280;13829;48.990;8.346;2023-11-21T09:57:24;100178.09;;;11.29;100.00
26112;BME280;13829;48.990;8.346;2023-11-21T09:59:52;100182.47;;;11.32;100.00
26112;BME280;13829;48.990;8.346;2023-11-21T10:02:26;100181.59;;;11.31;100.00
26112;BME280;13829;48.990;8.346;2023-11-21T10:04:54;100189.50;;;11.30;100.00
26112;BME280;13829;48.990;8.346;2023-11-21T10:07:23;100188.59;;;11.45;100.00
26112;BME280;13829;48.990;8.346;2023-11-21T10:09:52;100183.38;;;11.28;100.00
26112;BME280;13829;48.990;8.346;2023-11-21T10:12:20;100185.09;;;11.33;100.00
26112;BME280;13829;48.990;8.346;2023-11-21T10:14:49;100185.09;;;11.35;100.00
26112;BME280;13829;48.990;8.346;2023-11-21T10:17:18;100184.22;;;11.28;100.00
26112;BME280;13829;48.990;8.346;2023-11-21T10:19:47;100183.34;;;11.29;100.00
26112;BME280;13829;48.990;8.346;2023-11-21T10:22:15;100188.63;;;11.12;100.00
26112;BME280;13829;48.990;8.346;2023-11-21T10:24:43;100188.63;;;11.15;100.00
26112;BME280;13829;48.990;8.346;2023-11-21T10:27:10;100195.66;;;11.07;100.00
26112;BME280;13829;48.990;8.346;2023-11-21T10:29:39;100189.50;;;11.02;100.00
26112;BME280;13829;48.990;8.346;2023-11-21T10:32:07;100189.50;;;11.02;100.00
26112;BME280;13829;48.990;8.346;2023-11-21T10:34:35;100194.78;;;11.20;100.00
26112;BME280;13829;48.990;8.346;2023-11-21T10:37:12;100199.19;;;11.00;100.00
26112;BME280;13829;48.990;8.346;2023-11-21T10:39:39;100194.78;;;10.99;100.00
26112;BME280;13829;48.990;8.346;2023-11-21T10:42:09;100198.28;;;10.93;100.00
26112;BME280;13829;48.990;8.346;2023-11-21T10:44:36;100205.31;;;10.92;100.00
26112;BME280;13829;48.990;8.346;2023-11-21T10:47:03;100207.06;;;10.93;100.00
26112;BME280;13829;48.990;8.346;2023-11-21T10:49:31;100197.41;;;11.08;100.00
26112;BME280;13829;48.990;8.346;2023-11-21T10:51:57;100213.19;;;11.08;100.00
26112;BME280;13829;48.990;8.346;2023-11-21T10:54:26;100206.19;;;10.91;100.00
26112;BME280;13829;48.990;8.346;2023-11-21T10:56:57;100217.59;;;11.06;100.00
26112;BME280;13829;48.990;8.346;2023-11-21T10:59:29;100210.56;;;10.99;100.00
26112;BME280;13829;48.990;8.346;2023-11-21T11:01:58;100213.22;;;10.89;100.00
26112;BME280;13829;48.990;8.346;2023-11-21T11:04:28;100211.47;;;10.87;100.00
26112;BME280;13829;48.990;8.346;2023-11-21T11:06:57;100218.44;;;10.82;100.00
26112;BME280;13829;48.990;8.346;2023-11-21T11:09:30;100217.56;;;10.90;100.00
26112;BME280;13829;48.990;8.346;2023-11-21T11:11:58;100214.94;;;10.90;100.00
26112;BME280;13829;48.990;8.346;2023-11-21T11:14:26;100212.34;;;11.00;100.00
26112;BME280;13829;48.990;8.346;2023-11-21T11:16:54;100218.47;;;10.99;100.00
26112;BME280;13829;48.990;8.346;2023-11-21T11:19:22;100214.06;;;10.82;100.00
26112;BME280;13829;48.990;8.346;2023-11-21T11:21:58;100227.25;;;10.87;100.00
26112;BME280;13829;48.990;8.346;2023-11-21T11:25:06;100225.47;;;10.80;100.00
26112;BME280;13829;48.990;8.346;2023-11-21T11:27:54;100223.72;;;10.91;100.00
26112;BME280;13829;48.990;8.346;2023-11-21T11:30:39;100219.34;;;11.01;100.00
26112;BME280;13829;48.990;8.346;2023-11-21T11:33:17;100227.22;;;11.05;100.00
26112;BME280;13829;48.990;8.346;2023-11-21T11:35:59;100221.97;;;11.05;100.00
26112;BME280;13829;48.990;8.346;2023-11-21T11:38:32;100222.84;;;10.90;100.00
26112;BME280;13829;48.990;8.346;2023-11-21T11:41:04;100226.38;;;10.99;100.00
26112;BME280;13829;48.990;8.346;2023-11-21T11:43:32;100227.22;;;11.07;100.00
26112;BME280;13829;48.990;8.346;2023-11-21T11:46:10;100234.25;;;11.08;100.00
26112;BME280;13829;48.990;8.346;2023-11-21T11:48:39;100229.84;;;11.21;100.00
26112;BME280;13829;48.990;8.346;2023-11-21T11:51:11;100231.63;;;11.14;100.00
26112;BME280;13829;48.990;8.346;2023-11-21T11:53:41;100236.03;;;11.06;100.00
26112;BME280;13829;48.990;8.346;2023-11-21T11:56:29;100229.88;;;11.16;100.00
26112;BME280;13829;48.990;8.346;2023-11-21T11:59:02;100233.38;;;11.31;100.00
26112;BME280;13829;48.990;8.346;2023-11-21T12:01:32;100230.75;;;11.24;100.00
26112;BME280;13829;48.990;8.346;2023-11-21T12:04:25;100224.59;;;11.13;100.00
26112;BME280;13829;48.990;8.346;2023-11-21T12:07:01;100233.38;;;11.34;100.00
26112;BME280;13829;48.990;8.346;2023-11-21T12:09:31;100226.34;;;11.39;100.00
26112;BME280;13829;48.990;8.346;2023-11-21T12:12:00;100226.34;;;11.08;100.00
26112;BME280;13829;48.990;8.346;2023-11-21T12:14:27;100228.97;;;11.28;100.00
26112;BME280;13829;48.990;8.346;2023-11-21T12:16:54;100228.09;;;11.38;100.00
26112;BME280;13829;48.990;8.346;2023-11-21T12:19:21;100229.00;;;11.25;100.00
26112;BME280;13829;48.990;8.346;2023-11-21T12:21:49;100229.88;;;11.22;100.00
26112;BME280;13829;48.990;8.346;2023-11-21T12:24:17;100240.41;;;11.29;100.00
26112;BME280;13829;48.990;8.346;2023-11-21T12:26:44;100238.66;;;11.34;100.00
26112;BME280;13829;48.990;8.346;2023-11-21T12:29:13;100238.63;;;11.49;100.00
26112;BME280;13829;48.990;8.346;2023-11-21T12:31:40;100233.34;;;11.46;100.00
26112;BME280;13829;48.990;8.346;2023-11-21T12:34:07;100236.88;;;11.45;100.00
26112;BME280;13829;48.990;8.346;2023-11-21T12:36:37;100236.84;;;11.57;100.00
26112;BME280;13829;48.990;8.346;2023-11-21T12:39:04;100235.09;;;11.59;100.00
26112;BME280;13829;48.990;8.346;2023-11-21T12:41:32;100243.84;;;11.65;100.00
26112;BME280;13829;48.990;8.346;2023-11-21T12:43:59;100249.13;;;11.65;100.00
26112;BME280;13829;48.990;8.346;2023-11-21T12:46:27;100250.88;;;11.69;100.00
26112;BME280;13829;48.990;8.346;2023-11-21T12:48:57;100248.25;;;11.67;100.00
26112;BME280;13829;48.990;8.346;2023-11-21T12:51:24;100256.16;;;11.63;100.00
26112;BME280;13829;48.990;8.346;2023-11-21T12:53:52;100259.66;;;11.69;100.00